Culp Creek, Oregon
Current Conditions -  °F | °C
As of 4:54 AM on Saturday 20 Dec 2014 (Local Time) from KEUG Reporting Station
Light Rain Light Rain  
Wind Chill: 43°   Ceiling: 4200
Heat Index: 49°   Visibility: 10mi
Dew Point: 45°   Wind: 16mph
Humidity: 86%   Direction: 180°S
Pressure: 29.81"   Gusts: NA
Location:  43.7°N, 122.85°W
Report Text: KEUG 201254Z AUTO 18014KT 10SM -RA FEW017 BKN042 OVC050 09/07 A2981 RMK AO2 SLP094 P0002 T00940072
Loading
Personal Weather Stations






























Interactive Weather Map New forecast layout! Learn more

10-Day Weather Forecast

Advertisements
Track Severe Weather on mobile